sensor_id;sensor_type;location;lat;lon;timestamp;temperature;humidity
15991;DHT22;8100;50.994;4.538;2023-11-18T00:02:35;4.80;99.90
15991;DHT22;8100;50.994;4.538;2023-11-18T00:05:22;5.00;99.90
15991;DHT22;8100;50.994;4.538;2023-11-18T00:08:11;4.90;99.90
15991;DHT22;8100;50.994;4.538;2023-11-18T00:10:59;3.90;99.90
15991;DHT22;8100;50.994;4.538;2023-11-18T00:13:46;4.90;99.90
15991;DHT22;8100;50.994;4.538;2023-11-18T00:16:33;4.30;99.90
15991;DHT22;8100;50.994;4.538;2023-11-18T00:19:21;5.00;99.90
15991;DHT22;8100;50.994;4.538;2023-11-18T00:22:08;4.90;99.90
15991;DHT22;8100;50.994;4.538;2023-11-18T00:24:56;4.80;99.90
15991;DHT22;8100;50.994;4.538;2023-11-18T00:27:44;3.90;99.90
15991;DHT22;8100;50.994;4.538;2023-11-18T00:30:31;5.10;99.90
15991;DHT22;8100;50.994;4.538;2023-11-18T00:33:18;5.00;99.90
15991;DHT22;8100;50.994;4.538;2023-11-18T00:36:06;4.20;99.90
15991;DHT22;8100;50.994;4.538;2023-11-18T00:38:53;4.00;99.90
15991;DHT22;8100;50.994;4.538;2023-11-18T00:41:42;3.90;99.90
15991;DHT22;8100;50.994;4.538;2023-11-18T00:44:29;4.20;99.90
15991;DHT22;8100;50.994;4.538;2023-11-18T00:47:16;3.90;99.90
15991;DHT22;8100;50.994;4.538;2023-11-18T00:50:05;5.00;99.90
15991;DHT22;8100;50.994;4.538;2023-11-18T00:52:54;4.50;99.90
15991;DHT22;8100;50.994;4.538;2023-11-18T00:55:41;4.30;99.90
15991;DHT22;8100;50.994;4.538;2023-11-18T00:58:29;4.80;99.90
15991;DHT22;8100;50.994;4.538;2023-11-18T01:01:17;4.20;99.90
15991;DHT22;8100;50.994;4.538;2023-11-18T01:04:04;4.10;99.90
15991;DHT22;8100;50.994;4.538;2023-11-18T01:06:51;5.00;99.90
15991;DHT22;8100;50.994;4.538;2023-11-18T01:09:39;4.80;99.90
15991;DHT22;8100;50.994;4.538;2023-11-18T01:12:26;5.10;99.90
15991;DHT22;8100;50.994;4.538;2023-11-18T01:15:14;4.00;99.90
15991;DHT22;8100;50.994;4.538;2023-11-18T01:18:02;5.20;99.90
15991;DHT22;8100;50.994;4.538;2023-11-18T01:20:49;4.80;99.90
15991;DHT22;8100;50.994;4.538;2023-11-18T01:23:37;4.60;99.90
15991;DHT22;8100;50.994;4.538;2023-11-18T01:26:24;5.10;99.90
15991;DHT22;8100;50.994;4.538;2023-11-18T01:29:13;3.90;99.90
15991;DHT22;8100;50.994;4.538;2023-11-18T01:32:01;4.00;99.90
15991;DHT22;8100;50.994;4.538;2023-11-18T01:34:54;4.00;99.90
15991;DHT22;8100;50.994;4.538;2023-11-18T01:37:42;4.20;99.90
15991;DHT22;8100;50.994;4.538;2023-11-18T01:40:29;4.30;99.90
15991;DHT22;8100;50.994;4.538;2023-11-18T01:43:17;4.10;99.90
15991;DHT22;8100;50.994;4.538;2023-11-18T01:46:07;4.00;99.90
15991;DHT22;8100;50.994;4.538;2023-11-18T01:48:58;5.20;99.90
15991;DHT22;8100;50.994;4.538;2023-11-18T01:51:46;4.00;99.90
15991;DHT22;8100;50.994;4.538;2023-11-18T01:54:34;4.00;99.90
15991;DHT22;8100;50.994;4.538;2023-11-18T01:57:23;5.20;99.90
15991;DHT22;8100;50.994;4.538;2023-11-18T02:00:13;4.10;99.90
15991;DHT22;8100;50.994;4.538;2023-11-18T02:03:03;4.80;99.90
15991;DHT22;8100;50.994;4.538;2023-11-18T02:05:52;4.00;99.90
15991;DHT22;8100;50.994;4.538;2023-11-18T02:08:40;5.30;99.90
15991;DHT22;8100;50.994;4.538;2023-11-18T02:11:30;4.00;99.90
15991;DHT22;8100;50.994;4.538;2023-11-18T02:14:20;4.80;99.90
15991;DHT22;8100;50.994;4.538;2023-11-18T02:17:09;4.10;99.90
15991;DHT22;8100;50.994;4.538;2023-11-18T02:19:58;5.30;99.90
15991;DHT22;8100;50.994;4.538;2023-11-18T02:22:47;5.40;99.90
15991;DHT22;8100;50.994;4.538;2023-11-18T02:25:43;5.20;99.90
15991;DHT22;8100;50.994;4.538;2023-11-18T02:28:31;5.30;99.90
15991;DHT22;8100;50.994;4.538;2023-11-18T02:31:22;5.30;99.90
15991;DHT22;8100;50.994;4.538;2023-11-18T02:34:15;4.20;99.90
15991;DHT22;8100;50.994;4.538;2023-11-18T02:37:07;4.90;99.90
15991;DHT22;8100;50.994;4.538;2023-11-18T02:40:01;5.00;99.90
15991;DHT22;8100;50.994;4.538;2023-11-18T02:42:55;4.70;99.90
15991;DHT22;8100;50.994;4.538;2023-11-18T02:45:45;4.70;99.90
15991;DHT22;8100;50.994;4.538;2023-11-18T02:48:34;5.40;99.90
15991;DHT22;8100;50.994;4.538;2023-11-18T02:51:21;4.00;99.90
15991;DHT22;8100;50.994;4.538;2023-11-18T02:54:09;4.80;99.90
15991;DHT22;8100;50.994;4.538;2023-11-18T02:56:56;4.10;99.90
15991;DHT22;8100;50.994;4.538;2023-11-18T02:59:46;5.40;99.90
15991;DHT22;8100;50.994;4.538;2023-11-18T03:02:33;5.30;99.90
15991;DHT22;8100;50.994;4.538;2023-11-18T03:05:21;4.00;99.90
15991;DHT22;8100;50.994;4.538;2023-11-18T03:08:08;5.30;99.90
15991;DHT22;8100;50.994;4.538;2023-11-18T03:10:55;4.60;99.90
15991;DHT22;8100;50.994;4.538;2023-11-18T03:13:44;4.60;99.90
15991;DHT22;8100;50.994;4.538;2023-11-18T03:16:33;4.40;99.90
15991;DHT22;8100;50.994;4.538;2023-11-18T03:19:20;4.00;99.90
15991;DHT22;8100;50.994;4.538;2023-11-18T03:22:07;5.10;99.90
15991;DHT22;8100;50.994;4.538;2023-11-18T03:24:54;3.90;99.90
15991;DHT22;8100;50.994;4.538;2023-11-18T03:27:42;5.40;99.90
15991;DHT22;8100;50.994;4.538;2023-11-18T03:30:30;4.10;99.90
15991;DHT22;8100;50.994;4.538;2023-11-18T03:33:18;5.40;99.90
15991;DHT22;8100;50.994;4.538;2023-11-18T03:36:06;5.40;99.90
15991;DHT22;8100;50.994;4.538;2023-11-18T03:38:54;4.40;99.90
15991;DHT22;8100;50.994;4.538;2023-11-18T03:41:41;4.80;99.90
15991;DHT22;8100;50.994;4.538;2023-11-18T03:44:30;4.80;99.90
15991;DHT22;8100;50.994;4.538;2023-11-18T03:47:17;5.50;99.90
15991;DHT22;8100;50.994;4.538;2023-11-18T03:50:06;4.80;99.90
15991;DHT22;8100;50.994;4.538;2023-11-18T03:52:55;5.50;99.90
15991;DHT22;8100;50.994;4.538;2023-11-18T03:55:42;4.90;99.90
15991;DHT22;8100;50.994;4.538;2023-11-18T03:58:29;5.20;99.90
15991;DHT22;8100;50.994;4.538;2023-11-18T04:01:21;5.40;99.90
15991;DHT22;8100;50.994;4.538;2023-11-18T04:04:08;5.30;99.90
15991;DHT22;8100;50.994;4.538;2023-11-18T04:06:57;5.40;99.90
15991;DHT22;8100;50.994;4.538;2023-11-18T04:09:46;4.30;99.90
15991;DHT22;8100;50.994;4.538;2023-11-18T04:12:34;5.60;99.90
15991;DHT22;8100;50.994;4.538;2023-11-18T04:15:21;4.90;99.90
15991;DHT22;8100;50.994;4.538;2023-11-18T04:18:08;5.50;99.90
15991;DHT22;8100;50.994;4.538;2023-11-18T04:20:55;4.90;99.90
15991;DHT22;8100;50.994;4.538;2023-11-18T04:23:45;5.70;99.90
15991;DHT22;8100;50.994;4.538;2023-11-18T04:26:33;5.80;99.90
15991;DHT22;8100;50.994;4.538;2023-11-18T04:29:20;5.50;99.90
15991;DHT22;8100;50.994;4.538;2023-11-18T04:32:09;4.90;99.90
15991;DHT22;8100;50.994;4.538;2023-11-18T04:34:56;5.70;99.90
15991;DHT22;8100;50.994;4.538;2023-11-18T04:37:43;5.60;99.90
15991;DHT22;8100;50.994;4.538;2023-11-18T04:40:33;4.50;99.90
15991;DHT22;8100;50.994;4.538;2023-11-18T04:43:20;4.60;99.90
15991;DHT22;8100;50.994;4.538;2023-11-18T04:46:08;5.00;99.90
15991;DHT22;8100;50.994;4.538;2023-11-18T04:48:56;4.70;99.90
15991;DHT22;8100;50.994;4.538;2023-11-18T04:51:44;4.70;99.90
15991;DHT22;8100;50.994;4.538;2023-11-18T04:54:31;6.00;99.90
15991;DHT22;8100;50.994;4.538;2023-11-18T04:57:19;5.20;99.90
15991;DHT22;8100;50.994;4.538;2023-11-18T05:00:07;5.30;99.90
15991;DHT22;8100;50.994;4.538;2023-11-18T05:02:57;5.50;99.90
15991;DHT22;8100;50.994;4.538;2023-11-18T05:05:45;6.10;99.90
15991;DHT22;8100;50.994;4.538;2023-11-18T05:08:32;6.00;99.90
15991;DHT22;8100;50.994;4.538;2023-11-18T05:11:19;6.00;99.90
15991;DHT22;8100;50.994;4.538;2023-11-18T05:14:08;6.10;99.90
15991;DHT22;8100;50.994;4.538;2023-11-18T05:16:55;5.70;99.90
15991;DHT22;8100;50.994;4.538;2023-11-18T05:19:42;5.20;99.90
15991;DHT22;8100;50.994;4.538;2023-11-18T05:22:30;5.00;99.90
15991;DHT22;8100;50.994;4.538;2023-11-18T05:25:17;5.80;99.90
15991;DHT22;8100;50.994;4.538;2023-11-18T05:28:05;5.10;99.90
15991;DHT22;8100;50.994;4.538;2023-11-18T05:30:55;6.20;99.90
15991;DHT22;8100;50.994;4.538;2023-11-18T05:33:44;5.20;99.90
15991;DHT22;8100;50.994;4.538;2023-11-18T05:36:37;5.70;99.90
15991;DHT22;8100;50.994;4.538;2023-11-18T05:39:26;6.20;99.90
15991;DHT22;8100;50.994;4.538;2023-11-18T05:42:16;5.10;99.90
15991;DHT22;8100;50.994;4.538;2023-11-18T05:45:05;5.10;99.90
15991;DHT22;8100;50.994;4.538;2023-11-18T05:47:54;5.10;99.90
15991;DHT22;8100;50.994;4.538;2023-11-18T05:50:42;5.30;99.90
15991;DHT22;8100;50.994;4.538;2023-11-18T05:53:29;5.20;99.90
15991;DHT22;8100;50.994;4.538;2023-11-18T05:56:17;6.00;99.90
15991;DHT22;8100;50.994;4.538;2023-11-18T05:59:04;5.80;99.90
15991;DHT22;8100;50.994;4.538;2023-11-18T06:01:51;5.10;99.90
15991;DHT22;8100;50.994;4.538;2023-11-18T06:04:40;5.80;99.90
15991;DHT22;8100;50.994;4.538;2023-11-18T06:07:28;5.10;99.90
15991;DHT22;8100;50.994;4.538;2023-11-18T06:10:15;6.00;99.90
15991;DHT22;8100;50.994;4.538;2023-11-18T06:13:02;5.90;99.90
15991;DHT22;8100;50.994;4.538;2023-11-18T06:15:50;5.20;99.90
15991;DHT22;8100;50.994;4.538;2023-11-18T06:18:38;5.80;99.90
15991;DHT22;8100;50.994;4.538;2023-11-18T06:21:27;5.20;99.90
15991;DHT22;8100;50.994;4.538;2023-11-18T06:24:16;6.40;99.90
15991;DHT22;8100;50.994;4.538;2023-11-18T06:27:05;5.70;99.90
15991;DHT22;8100;50.994;4.538;2023-11-18T06:29:53;5.40;99.90
15991;DHT22;8100;50.994;4.538;2023-11-18T06:32:41;5.40;99.90
15991;DHT22;8100;50.994;4.538;2023-11-18T06:35:28;5.50;99.90
15991;DHT22;8100;50.994;4.538;2023-11-18T06:38:17;6.40;99.90
15991;DHT22;8100;50.994;4.538;2023-11-18T06:41:04;6.30;99.90
15991;DHT22;8100;50.994;4.538;2023-11-18T06:43:54;6.10;99.90
15991;DHT22;8100;50.994;4.538;2023-11-18T06:46:46;5.70;99.90
15991;DHT22;8100;50.994;4.538;2023-11-18T06:49:34;6.30;99.90
15991;DHT22;8100;50.994;4.538;2023-11-18T06:52:21;5.90;99.90
15991;DHT22;8100;50.994;4.538;2023-11-18T06:55:09;6.70;99.90
15991;DHT22;8100;50.994;4.538;2023-11-18T06:57:57;5.70;99.90
15991;DHT22;8100;50.994;4.538;2023-11-18T07:00:44;6.70;99.90
15991;DHT22;8100;50.994;4.538;2023-11-18T07:03:31;6.50;99.90
15991;DHT22;8100;50.994;4.538;2023-11-18T07:06:19;6.20;99.90
15991;DHT22;8100;50.994;4.538;2023-11-18T07:09:08;6.90;99.90
15991;DHT22;8100;50.994;4.538;2023-11-18T07:12:00;6.00;99.90
15991;DHT22;8100;50.994;4.538;2023-11-18T07:14:48;6.20;99.90
15991;DHT22;8100;50.994;4.538;2023-11-18T07:17:35;6.30;99.90
15991;DHT22;8100;50.994;4.538;2023-11-18T07:20:22;7.00;99.90
15991;DHT22;8100;50.994;4.538;2023-11-18T07:23:09;6.60;99.90
15991;DHT22;8100;50.994;4.538;2023-11-18T07:25:56;6.70;99.90
15991;DHT22;8100;50.994;4.538;2023-11-18T07:28:45;7.10;99.90
15991;DHT22;8100;50.994;4.538;2023-11-18T07:31:32;6.40;99.90
15991;DHT22;8100;50.994;4.538;2023-11-18T07:34:20;6.60;99.90
15991;DHT22;8100;50.994;4.538;2023-11-18T07:37:09;7.20;99.90
15991;DHT22;8100;50.994;4.538;2023-11-18T07:39:58;6.60;99.90
15991;DHT22;8100;50.994;4.538;2023-11-18T07:42:46;6.40;99.90
15991;DHT22;8100;50.994;4.538;2023-11-18T07:45:36;7.10;99.90
15991;DHT22;8100;50.994;4.538;2023-11-18T07:48:24;6.50;99.90
15991;DHT22;8100;50.994;4.538;2023-11-18T07:51:12;6.60;99.90
15991;DHT22;8100;50.994;4.538;2023-11-18T07:54:00;7.30;99.90
15991;DHT22;8100;50.994;4.538;2023-11-18T07:56:49;7.10;99.90
15991;DHT22;8100;50.994;4.538;2023-11-18T07:59:36;7.30;99.90
15991;DHT22;8100;50.994;4.538;2023-11-18T08:02:25;6.50;99.90
15991;DHT22;8100;50.994;4.538;2023-11-18T08:05:14;7.40;99.90
15991;DHT22;8100;50.994;4.538;2023-11-18T08:08:01;6.70;99.90
15991;DHT22;8100;50.994;4.538;2023-11-18T08:10:49;6.50;99.90
15991;DHT22;8100;50.994;4.538;2023-11-18T08:13:36;7.50;99.90
15991;DHT22;8100;50.994;4.538;2023-11-18T08:16:23;6.70;99.90
15991;DHT22;8100;50.994;4.538;2023-11-18T08:19:13;7.20;99.90
15991;DHT22;8100;50.994;4.538;2023-11-18T08:22:00;7.60;99.90
15991;DHT22;8100;50.994;4.538;2023-11-18T08:24:48;7.60;99.90
15991;DHT22;8100;50.994;4.538;2023-11-18T08:27:35;6.70;99.90
15991;DHT22;8100;50.994;4.538;2023-11-18T08:30:22;7.20;99.90
15991;DHT22;8100;50.994;4.538;2023-11-18T08:33:10;7.60;99.90
15991;DHT22;8100;50.994;4.538;2023-11-18T08:35:58;7.70;99.90
15991;DHT22;8100;50.994;4.538;2023-11-18T08:38:47;7.30;99.90
15991;DHT22;8100;50.994;4.538;2023-11-18T08:41:35;7.80;99.90
15991;DHT22;8100;50.994;4.538;2023-11-18T08:44:22;6.70;99.90
15991;DHT22;8100;50.994;4.538;2023-11-18T08:47:10;6.90;99.90
15991;DHT22;8100;50.994;4.538;2023-11-18T08:49:58;7.80;99.90
15991;DHT22;8100;50.994;4.538;2023-11-18T08:52:59;8.00;99.90
15991;DHT22;8100;50.994;4.538;2023-11-18T08:55:50;7.70;99.90
15991;DHT22;8100;50.994;4.538;2023-11-18T08:58:41;6.60;99.90
15991;DHT22;8100;50.994;4.538;2023-11-18T09:01:30;6.80;99.90
15991;DHT22;8100;50.994;4.538;2023-11-18T09:04:17;7.30;99.90
15991;DHT22;8100;50.994;4.538;2023-11-18T09:07:06;6.60;99.90
15991;DHT22;8100;50.994;4.538;2023-11-18T09:09:57;7.30;99.90
15991;DHT22;8100;50.994;4.538;2023-11-18T09:12:47;6.80;99.90
15991;DHT22;8100;50.994;4.538;2023-11-18T09:15:34;8.10;99.90
15991;DHT22;8100;50.994;4.538;2023-11-18T09:18:23;8.10;99.90
15991;DHT22;8100;50.994;4.538;2023-11-18T09:21:11;6.80;99.90
15991;DHT22;8100;50.994;4.538;2023-11-18T09:24:00;7.60;99.90
15991;DHT22;8100;50.994;4.538;2023-11-18T09:26:51;6.80;99.90
15991;DHT22;8100;50.994;4.538;2023-11-18T09:29:40;8.30;99.90
15991;DHT22;8100;50.994;4.538;2023-11-18T09:32:29;8.50;99.90
15991;DHT22;8100;50.994;4.538;2023-11-18T09:35:20;7.20;99.90
15991;DHT22;8100;50.994;4.538;2023-11-18T09:38:07;8.40;99.90
15991;DHT22;8100;50.994;4.538;2023-11-18T09:40:54;7.10;99.90
15991;DHT22;8100;50.994;4.538;2023-11-18T09:43:45;7.20;99.90
15991;DHT22;8100;50.994;4.538;2023-11-18T09:46:33;7.10;99.90
15991;DHT22;8100;50.994;4.538;2023-11-18T09:49:27;8.20;99.90
15991;DHT22;8100;50.994;4.538;2023-11-18T09:52:20;8.60;99.90
15991;DHT22;8100;50.994;4.538;2023-11-18T09:55:15;8.50;99.90
15991;DHT22;8100;50.994;4.538;2023-11-18T09:58:06;7.10;99.90
15991;DHT22;8100;50.994;4.538;2023-11-18T10:01:01;8.60;99.90
15991;DHT22;8100;50.994;4.538;2023-11-18T10:03:50;7.10;99.90
15991;DHT22;8100;50.994;4.538;2023-11-18T10:06:38;8.60;99.90
15991;DHT22;8100;50.994;4.538;2023-11-18T10:09:26;7.10;99.90
15991;DHT22;8100;50.994;4.538;2023-11-18T10:12:15;7.90;99.90
15991;DHT22;8100;50.994;4.538;2023-11-18T10:15:11;7.40;99.90
15991;DHT22;8100;50.994;4.538;2023-11-18T10:18:03;7.20;99.90
15991;DHT22;8100;50.994;4.538;2023-11-18T10:20:53;8.40;99.90
15991;DHT22;8100;50.994;4.538;2023-11-18T10:23:58;8.40;99.90
15991;DHT22;8100;50.994;4.538;2023-11-18T10:26:53;8.50;99.90
15991;DHT22;8100;50.994;4.538;2023-11-18T10:29:41;7.30;99.90
15991;DHT22;8100;50.994;4.538;2023-11-18T10:32:29;7.50;99.90
15991;DHT22;8100;50.994;4.538;2023-11-18T10:35:22;8.20;99.90
15991;DHT22;8100;50.994;4.538;2023-11-18T10:38:10;8.00;99.90
15991;DHT22;8100;50.994;4.538;2023-11-18T10:40:58;7.30;99.90
15991;DHT22;8100;50.994;4.538;2023-11-18T10:43:47;8.80;99.90
15991;DHT22;8100;50.994;4.538;2023-11-18T10:46:34;7.40;99.90
15991;DHT22;8100;50.994;4.538;2023-11-18T10:49:22;7.40;99.90
15991;DHT22;8100;50.994;4.538;2023-11-18T10:52:11;8.50;99.90
15991;DHT22;8100;50.994;4.538;2023-11-18T10:54:58;7.50;99.90
15991;DHT22;8100;50.994;4.538;2023-11-18T10:57:53;8.60;99.90
15991;DHT22;8100;50.994;4.538;2023-11-18T11:00:47;8.20;99.90
15991;DHT22;8100;50.994;4.538;2023-11-18T11:03:35;8.10;99.90
15991;DHT22;8100;50.994;4.538;2023-11-18T11:06:23;8.60;99.90
15991;DHT22;8100;50.994;4.538;2023-11-18T11:09:11;7.80;99.90
15991;DHT22;8100;50.994;4.538;2023-11-18T11:12:07;8.90;99.90
15991;DHT22;8100;50.994;4.538;2023-11-18T11:15:06;8.40;99.90
15991;DHT22;8100;50.994;4.538;2023-11-18T11:18:04;8.70;99.90
15991;DHT22;8100;50.994;4.538;2023-11-18T11:21:01;7.60;99.90
15991;DHT22;8100;50.994;4.538;2023-11-18T11:23:55;7.90;99.90
15991;DHT22;8100;50.994;4.538;2023-11-18T11:26:53;8.80;99.90
15991;DHT22;8100;50.994;4.538;2023-11-18T11:29:51;7.50;99.90
15991;DHT22;8100;50.994;4.538;2023-11-18T11:32:47;7.30;99.90
15991;DHT22;8100;50.994;4.538;2023-11-18T11:35:40;7.40;99.90
15991;DHT22;8100;50.994;4.538;2023-11-18T11:38:32;7.70;99.90
15991;DHT22;8100;50.994;4.538;2023-11-18T11:41:21;8.00;99.90
15991;DHT22;8100;50.994;4.538;2023-11-18T11:44:14;8.50;99.90
15991;DHT22;8100;50.994;4.538;2023-11-18T11:47:02;8.90;99.90
15991;DHT22;8100;50.994;4.538;2023-11-18T11:49:54;7.70;99.90
15991;DHT22;8100;50.994;4.538;2023-11-18T11:52:46;7.90;99.90
15991;DHT22;8100;50.994;4.538;2023-11-18T11:55:38;7.60;99.90
15991;DHT22;8100;50.994;4.538;2023-11-18T11:58:31;7.90;99.90
15991;DHT22;8100;50.994;4.538;2023-11-18T12:01:26;7.70;99.90
15991;DHT22;8100;50.994;4.538;2023-11-18T12:04:18;7.70;99.90
15991;DHT22;8100;50.994;4.538;2023-11-18T12:07:14;9.50;99.90
15991;DHT22;8100;50.994;4.538;2023-11-18T12:10:02;7.90;99.90
15991;DHT22;8100;50.994;4.538;2023-11-18T12:13:06;8.00;99.90
15991;DHT22;8100;50.994;4.538;2023-11-18T12:15:55;8.80;99.90
15991;DHT22;8100;50.994;4.538;2023-11-18T12:22:13;9.00;99.90
15991;DHT22;8100;50.994;4.538;2023-11-18T12:28:25;9.40;99.90
15991;DHT22;8100;50.994;4.538;2023-11-18T12:31:38;9.30;99.90
15991;DHT22;8100;50.994;4.538;2023-11-18T12:34:49;9.20;99.90
15991;DHT22;8100;50.994;4.538;2023-11-18T12:38:23;8.50;99.90
15991;DHT22;8100;50.994;4.538;2023-11-18T12:41:28;9.50;99.90
15991;DHT22;8100;50.994;4.538;2023-11-18T12:44:29;9.10;99.90
15991;DHT22;8100;50.994;4.538;2023-11-18T12:47:20;7.90;99.90
15991;DHT22;8100;50.994;4.538;2023-11-18T12:50:16;9.50;99.90
15991;DHT22;8100;50.994;4.538;2023-11-18T12:53:10;8.00;99.90
15991;DHT22;8100;50.994;4.538;2023-11-18T12:56:02;9.30;99.90
15991;DHT22;8100;50.994;4.538;2023-11-18T12:58:49;7.70;99.90
15991;DHT22;8100;50.994;4.538;2023-11-18T13:01:37;9.10;99.90
15991;DHT22;8100;50.994;4.538;2023-11-18T13:04:28;9.50;99.90
15991;DHT22;8100;50.994;4.538;2023-11-18T13:07:16;8.90;99.90
15991;DHT22;8100;50.994;4.538;2023-11-18T13:10:05;9.40;99.90
15991;DHT22;8100;50.994;4.538;2023-11-18T13:12:55;8.00;99.90
15991;DHT22;8100;50.994;4.538;2023-11-18T13:15:43;8.30;99.90
15991;DHT22;8100;50.994;4.538;2023-11-18T13:18:42;7.80;99.90
15991;DHT22;8100;50.994;4.538;2023-11-18T13:21:30;7.80;99.90
15991;DHT22;8100;50.994;4.538;2023-11-18T13:24:17;7.80;99.90
15991;DHT22;8100;50.994;4.538;2023-11-18T13:27:06;9.60;99.90
15991;DHT22;8100;50.994;4.538;2023-11-18T13:29:56;9.80;99.90
15991;DHT22;8100;50.994;4.538;2023-11-18T13:32:43;8.00;99.90
15991;DHT22;8100;50.994;4.538;2023-11-18T13:35:31;9.60;99.90
15991;DHT22;8100;50.994;4.538;2023-11-18T13:38:18;7.90;99.90
15991;DHT22;8100;50.994;4.538;2023-11-18T13:41:05;8.60;99.90
15991;DHT22;8100;50.994;4.538;2023-11-18T13:43:54;9.70;99.90
15991;DHT22;8100;50.994;4.538;2023-11-18T13:46:45;8.40;99.90
15991;DHT22;8100;50.994;4.538;2023-11-18T13:49:33;9.00;99.90
15991;DHT22;8100;50.994;4.538;2023-11-18T13:52:21;9.80;99.90
15991;DHT22;8100;50.994;4.538;2023-11-18T13:55:08;10.10;99.90
15991;DHT22;8100;50.994;4.538;2023-11-18T13:58:02;10.10;99.90
15991;DHT22;8100;50.994;4.538;2023-11-18T14:00:51;10.10;99.90
15991;DHT22;8100;50.994;4.538;2023-11-18T14:03:40;9.00;99.90
15991;DHT22;8100;50.994;4.538;2023-11-18T14:06:30;8.30;99.90
15991;DHT22;8100;50.994;4.538;2023-11-18T14:09:17;9.50;99.90
15991;DHT22;8100;50.994;4.538;2023-11-18T14:12:08;8.70;99.90
15991;DHT22;8100;50.994;4.538;2023-11-18T14:14:55;8.30;99.90
15991;DHT22;8100;50.994;4.538;2023-11-18T14:17:42;10.30;99.90
15991;DHT22;8100;50.994;4.538;2023-11-18T14:20:31;8.30;99.90
15991;DHT22;8100;50.994;4.538;2023-11-18T14:23:18;10.10;99.90
15991;DHT22;8100;50.994;4.538;2023-11-18T14:26:07;9.90;99.90
15991;DHT22;8100;50.994;4.538;2023-11-18T14:28:54;10.30;99.90
15991;DHT22;8100;50.994;4.538;2023-11-18T14:31:41;9.00;99.90
15991;DHT22;8100;50.994;4.538;2023-11-18T14:34:29;10.10;99.90
15991;DHT22;8100;50.994;4.538;2023-11-18T14:37:17;8.40;99.90
15991;DHT22;8100;50.994;4.538;2023-11-18T14:40:06;9.30;99.90
15991;DHT22;8100;50.994;4.538;2023-11-18T14:42:55;8.20;99.90
15991;DHT22;8100;50.994;4.538;2023-11-18T14:45:42;9.60;99.90
15991;DHT22;8100;50.994;4.538;2023-11-18T14:48:30;10.60;99.90
15991;DHT22;8100;50.994;4.538;2023-11-18T14:51:17;9.40;99.90
15991;DHT22;8100;50.994;4.538;2023-11-18T14:54:05;10.30;99.90
15991;DHT22;8100;50.994;4.538;2023-11-18T14:56:53;8.90;99.90
15991;DHT22;8100;50.994;4.538;2023-11-18T14:59:40;10.70;99.90
15991;DHT22;8100;50.994;4.538;2023-11-18T15:02:27;9.40;99.90
15991;DHT22;8100;50.994;4.538;2023-11-18T15:05:15;10.20;99.90
15991;DHT22;8100;50.994;4.538;2023-11-18T15:08:04;8.50;99.90
15991;DHT22;8100;50.994;4.538;2023-11-18T15:10:56;10.10;99.90
15991;DHT22;8100;50.994;4.538;2023-11-18T15:13:44;10.90;99.90
15991;DHT22;8100;50.994;4.538;2023-11-18T15:16:32;9.60;99.90
15991;DHT22;8100;50.994;4.538;2023-11-18T15:19:19;10.40;99.90
15991;DHT22;8100;50.994;4.538;2023-11-18T15:22:06;10.60;99.90
15991;DHT22;8100;50.994;4.538;2023-11-18T15:24:53;9.10;99.90
15991;DHT22;8100;50.994;4.538;2023-11-18T15:27:47;11.20;99.90
15991;DHT22;8100;50.994;4.538;2023-11-18T15:30:35;8.90;99.90
15991;DHT22;8100;50.994;4.538;2023-11-18T15:33:22;8.70;99.90
15991;DHT22;8100;50.994;4.538;2023-11-18T15:36:11;11.00;99.90
15991;DHT22;8100;50.994;4.538;2023-11-18T15:38:58;8.90;99.90
15991;DHT22;8100;50.994;4.538;2023-11-18T15:41:49;10.90;99.90
15991;DHT22;8100;50.994;4.538;2023-11-18T15:44:37;9.10;99.90
15991;DHT22;8100;50.994;4.538;2023-11-18T15:47:25;9.40;99.90
15991;DHT22;8100;50.994;4.538;2023-11-18T15:50:13;9.00;99.90
15991;DHT22;8100;50.994;4.538;2023-11-18T15:53:02;11.30;99.90
15991;DHT22;8100;50.994;4.538;2023-11-18T15:55:49;11.30;99.90
15991;DHT22;8100;50.994;4.538;2023-11-18T15:58:37;9.30;99.90
15991;DHT22;8100;50.994;4.538;2023-11-18T16:01:26;10.00;99.90
15991;DHT22;8100;50.994;4.538;2023-11-18T16:04:13;9.90;99.90
15991;DHT22;8100;50.994;4.538;2023-11-18T16:07:00;10.60;99.90
15991;DHT22;8100;50.994;4.538;2023-11-18T16:09:47;9.50;99.90
15991;DHT22;8100;50.994;4.538;2023-11-18T16:12:35;10.90;99.90
15991;DHT22;8100;50.994;4.538;2023-11-18T16:15:23;9.70;99.90
15991;DHT22;8100;50.994;4.538;2023-11-18T16:18:12;10.70;99.90
15991;DHT22;8100;50.994;4.538;2023-11-18T16:20:59;9.70;99.90
15991;DHT22;8100;50.994;4.538;2023-11-18T16:23:49;9.60;99.90
15991;DHT22;8100;50.994;4.538;2023-11-18T16:26:37;11.00;99.90
15991;DHT22;8100;50.994;4.538;2023-11-18T16:29:26;12.00;99.90
15991;DHT22;8100;50.994;4.538;2023-11-18T16:32:13;10.10;99.90
15991;DHT22;8100;50.994;4.538;2023-11-18T16:35:02;9.50;99.90
15991;DHT22;8100;50.994;4.538;2023-11-18T16:37:50;10.20;99.90
15991;DHT22;8100;50.994;4.538;2023-11-18T16:40:37;9.80;99.90
15991;DHT22;8100;50.994;4.538;2023-11-18T16:43:24;10.00;99.90
15991;DHT22;8100;50.994;4.538;2023-11-18T16:46:12;11.90;99.90
15991;DHT22;8100;50.994;4.538;2023-11-18T16:48:59;9.80;99.90
15991;DHT22;8100;50.994;4.538;2023-11-18T16:51:47;10.70;99.90
15991;DHT22;8100;50.994;4.538;2023-11-18T16:54:35;11.60;99.90
15991;DHT22;8100;50.994;4.538;2023-11-18T16:57:22;12.20;99.90
15991;DHT22;8100;50.994;4.538;2023-11-18T17:00:11;9.50;99.90
15991;DHT22;8100;50.994;4.538;2023-11-18T17:03:02;10.00;99.90
15991;DHT22;8100;50.994;4.538;2023-11-18T17:05:49;12.10;99.90
15991;DHT22;8100;50.994;4.538;2023-11-18T17:08:38;9.50;99.90
15991;DHT22;8100;50.994;4.538;2023-11-18T17:11:25;12.20;99.90
15991;DHT22;8100;50.994;4.538;2023-11-18T17:14:12;9.60;99.90
15991;DHT22;8100;50.994;4.538;2023-11-18T17:17:00;11.80;99.90
15991;DHT22;8100;50.994;4.538;2023-11-18T17:19:49;9.80;99.90
15991;DHT22;8100;50.994;4.538;2023-11-18T17:22:37;12.20;99.90
15991;DHT22;8100;50.994;4.538;2023-11-18T17:25:27;12.70;99.90
15991;DHT22;8100;50.994;4.538;2023-11-18T17:28:15;10.40;99.90
15991;DHT22;8100;50.994;4.538;2023-11-18T17:31:04;9.90;99.90
15991;DHT22;8100;50.994;4.538;2023-11-18T17:33:52;9.80;99.90
15991;DHT22;8100;50.994;4.538;2023-11-18T17:36:39;12.60;99.90
15991;DHT22;8100;50.994;4.538;2023-11-18T17:39:27;11.80;99.90
15991;DHT22;8100;50.994;4.538;2023-11-18T17:42:16;12.80;99.90
15991;DHT22;8100;50.994;4.538;2023-11-18T17:45:04;12.70;99.90
15991;DHT22;8100;50.994;4.538;2023-11-18T17:47:52;12.50;99.90
15991;DHT22;8100;50.994;4.538;2023-11-18T17:50:39;12.70;99.90
15991;DHT22;8100;50.994;4.538;2023-11-18T17:53:26;11.00;99.90
15991;DHT22;8100;50.994;4.538;2023-11-18T17:56:13;11.40;99.90
15991;DHT22;8100;50.994;4.538;2023-11-18T17:59:02;10.40;99.90
15991;DHT22;8100;50.994;4.538;2023-11-18T18:01:49;12.50;99.90
15991;DHT22;8100;50.994;4.538;2023-11-18T18:04:39;10.70;99.90
15991;DHT22;8100;50.994;4.538;2023-11-18T18:07:26;10.00;99.90
15991;DHT22;8100;50.994;4.538;2023-11-18T18:10:14;12.60;99.90
15991;DHT22;8100;50.994;4.538;2023-11-18T18:13:01;10.60;99.90
15991;DHT22;8100;50.994;4.538;2023-11-18T18:15:50;10.10;99.90
15991;DHT22;8100;50.994;4.538;2023-11-18T18:18:37;13.30;99.90
15991;DHT22;8100;50.994;4.538;2023-11-18T18:21:25;11.10;99.90
15991;DHT22;8100;50.994;4.538;2023-11-18T18:24:12;10.60;99.90
15991;DHT22;8100;50.994;4.538;2023-11-18T18:27:00;13.40;99.90
15991;DHT22;8100;50.994;4.538;2023-11-18T18:29:47;11.80;99.90